Map

Track Data

SID SEASON NUMBER BASIN SUBBASIN NAME ISO_TIME NATURE LAT LON WMO_WIND WMO_PRES WMO_AGENCY TRACK_TYPE DIST2LAND LANDFALL IFLAG USA_AGENCY USA_ATCF_ID USA_LAT USA_LON USA_RECORD USA_STATUS USA_WIND USA_PRES USA_SSHS USA_R34_NE USA_R34_SE USA_R34_SW USA_R34_NW USA_R50_NE USA_R50_SE USA_R50_SW USA_R50_NW USA_R64_NE USA_R64_SE USA_R64_SW USA_R64_NW USA_POCI USA_ROCI USA_RMW USA_EYE TOKYO_LAT TOKYO_LON TOKYO_GRADE TOKYO_WIND TOKYO_PRES TOKYO_R50_DIR TOKYO_R50_LONG TOKYO_R50_SHORT TOKYO_R30_DIR TOKYO_R30_LONG TOKYO_R30_SHORT TOKYO_LAND CMA_LAT CMA_LON CMA_CAT CMA_WIND CMA_PRES HKO_LAT HKO_LON HKO_CAT HKO_WIND HKO_PRES NEWDELHI_LAT NEWDELHI_LON NEWDELHI_GRADE NEWDELHI_WIND NEWDELHI_PRES NEWDELHI_CI NEWDELHI_DP NEWDELHI_POCI REUNION_LAT REUNION_LON REUNION_TYPE REUNION_WIND REUNION_PRES REUNION_TNUM REUNION_CI REUNION_RMW REUNION_R34_NE REUNION_R34_SE REUNION_R34_SW REUNION_R34_NW REUNION_R50_NE REUNION_R50_SE REUNION_R50_SW REUNION_R50_NW REUNION_R64_NE REUNION_R64_SE REUNION_R64_SW REUNION_R64_NW BOM_LAT BOM_LON BOM_TYPE BOM_WIND BOM_PRES BOM_TNUM BOM_CI BOM_RMW BOM_R34_NE BOM_R34_SE BOM_R34_SW BOM_R34_NW BOM_R50_NE BOM_R50_SE BOM_R50_SW BOM_R50_NW BOM_R64_NE BOM_R64_SE BOM_R64_SW BOM_R64_NW BOM_ROCI BOM_POCI BOM_EYE BOM_POS_METHOD BOM_PRES_METHOD NADI_LAT NADI_LON NADI_CAT NADI_WIND NADI_PRES WELLINGTON_LAT WELLINGTON_LON WELLINGTON_WIND WELLINGTON_PRES DS824_LAT DS824_LON DS824_STAGE DS824_WIND DS824_PRES TD9636_LAT TD9636_LON TD9636_STAGE TD9636_WIND TD9636_PRES TD9635_LAT TD9635_LON TD9635_WIND TD9635_PRES TD9635_ROCI NEUMANN_LAT NEUMANN_LON NEUMANN_CLASS NEUMANN_WIND NEUMANN_PRES MLC_LAT MLC_LON MLC_CLASS MLC_WIND MLC_PRES USA_GUST BOM_GUST BOM_GUST_PER REUNION_GUST REUNION_GUST_PER USA_SEAHGT USA_SEARAD_NE USA_SEARAD_SE USA_SEARAD_SW USA_SEARAD_NW STORM_SPEED STORM_DIR
1970233N17155 1970 95 WP MM NOT_NAMED 1970-08-21 00:00:00 TS 17.4000 154.800 main 2291 2291 __O___________ -1 17.4000 154.800 0 1006 4 334
1970233N17155 1970 95 WP MM NOT_NAMED 1970-08-21 03:00:00 TS 17.5875 154.700 main 2311 2311 __P___________ -1 17.5875 154.700 0 1006 4 335
1970233N17155 1970 95 WP MM NOT_NAMED 1970-08-21 06:00:00 TS 17.8000 154.600 main 2331 2331 __O___________ -1 17.8000 154.600 0 1006 5 338
1970233N17155 1970 95 WP MM NOT_NAMED 1970-08-21 09:00:00 TS 18.0500 154.500 main 2361 2337 __P___________ -1 18.0500 154.500 0 1006 5 339
1970233N17155 1970 95 WP MM NOT_NAMED 1970-08-21 12:00:00 TS 18.3000 154.400 main 2337 2312 __O___________ -1 18.3000 154.400 0 1006 5 337
1970233N17155 1970 95 WP MM NOT_NAMED 1970-08-21 15:00:00 TS 18.5000 154.300 main 2312 2288 __P___________ -1 18.5000 154.300 0 1005 4 335
1970233N17155 1970 95 WP MM NOT_NAMED 1970-08-21 18:00:00 TS 18.7000 154.200 main 2288 2264 __O___________ -1 18.7000 154.200 0 1004 5 339
1970233N17155 1970 95 WP MM NOT_NAMED 1970-08-21 21:00:00 TS 18.9349 154.122 main 2264 2230 __P___________ -1 18.9349 154.122 0 1003 5 339
1970233N17155 1970 95 WP MM NOT_NAMED 1970-08-22 00:00:00 TS 19.2000 154.000 main 2230 2190 __O___________ -1 19.2000 154.000 0 19 1002 7 329
1970233N17155 1970 95 WP MM NOT_NAMED 1970-08-22 03:00:00 TS 19.4925 153.773 main 2190 2145 __P___________ -1 19.4925 153.773 0 21 1001 8 322
1970233N17155 1970 95 WP MM NOT_NAMED 1970-08-22 06:00:00 TS 19.8000 153.500 main 2145 2100 __O___________ -1 19.8000 153.500 1 23 1000 8 318
1970233N17155 1970 95 WP MM NOT_NAMED 1970-08-22 09:00:00 TS 20.0776 153.205 main 2100 2060 __P___________ -1 20.0776 153.205 1 23 1000 8 322
1970233N17155 1970 95 WP MM NOT_NAMED 1970-08-22 12:00:00 TS 20.4000 153.000 main 2060 2023 __O___________ -1 20.4000 153.000 1 23 1000 8 346
1970233N17155 1970 95 WP MM NOT_NAMED 1970-08-22 15:00:00 TS 20.8424 152.997 main 2023 1983 __P___________ -1 20.8424 152.997 1 23 1000 9 6
1970233N17155 1970 95 WP MM NOT_NAMED 1970-08-22 18:00:00 TS 21.3000 153.100 main 1983 1956 __O___________ -1 21.3000 153.100 1 23 1000 8 11
1970233N17155 1970 95 WP MM NOT_NAMED 1970-08-22 21:00:00 TS 21.6650 153.178 main 1954 1933 __P___________ -1 21.6650 153.178 1 23 1001 7 15
1970233N17155 1970 95 WP MM NOT_NAMED 1970-08-23 00:00:00 TS 22.0000 153.300 main 1933 1913 __O___________ -1 22.0000 153.300 1 23 1002 7 22
1970233N17155 1970 95 WP MM NOT_NAMED 1970-08-23 03:00:00 TS 22.3425 153.470 main 1919 1898 __P___________ -1 22.3425 153.470 1 23 1002 8 28
1970233N17155 1970 95 WP MM NOT_NAMED 1970-08-23 06:00:00 TS 22.7000 153.700 main 1898 1883 __O___________ -1 22.7000 153.700 1 23 1002 9 34
1970233N17155 1970 95 WP MM NOT_NAMED 1970-08-23 09:00:00 TS 23.0852 154.022 main 1883 1871 __P___________ -1 23.0852 154.022 1 23 1002 10 35
1970233N17155 1970 95 WP MM NOT_NAMED 1970-08-23 12:00:00 TS 23.5000 154.300 main 1871 1845 __O___________ -1 23.5000 154.300 1 23 1002 9 22
1970233N17155 1970 95 WP MM NOT_NAMED 1970-08-23 15:00:00 TS 23.9424 154.403 main 1845 1805 __P___________ -1 23.9424 154.403 1 23 1002 9 5
1970233N17155 1970 95 WP MM NOT_NAMED 1970-08-23 18:00:00 TS 24.4000 154.400 main 1805 1771 __O___________ -1 24.4000 154.400 1 23 1002 10 7
1970233N17155 1970 95 WP MM NOT_NAMED 1970-08-23 21:00:00 TS 24.9085 154.529 main 1771 1725 __P___________ -1 24.9085 154.529 1 23 1002 9 355
1970233N17155 1970 95 WP MM NOT_NAMED 1970-08-24 00:00:00 TS 25.3000 154.300 main 1725 1655 __O___________ -1 25.3000 154.300 1 23 1003 12 295
1970233N17155 1970 95 WP MM NOT_NAMED 1970-08-24 03:00:00 TS 25.4272 153.292 main 1647 1564 __P___________ -1 25.4272 153.292 1 23 1003 21 273
1970233N17155 1970 95 WP MM NOT_NAMED 1970-08-24 06:00:00 TS 25.4000 152.000 main 1557 1499 __O___________ -1 25.4000 152.000 1 23 1003 21 267
1970233N17155 1970 95 WP MM NOT_NAMED 1970-08-24 09:00:00 TS 25.3340 150.969 main 1499 1442 __P___________ -1 25.3340 150.969 1 23 1003 18 267
1970233N17155 1970 95 WP MM NOT_NAMED 1970-08-24 12:00:00 TS 25.3000 150.000 main 1436 1373 __O___________ -1 25.3000 150.000 1 23 1003 17 272
1970233N17155 1970 95 WP MM NOT_NAMED 1970-08-24 15:00:00 TS 25.3968 149.042 main 1368 1304 __P___________ -1 25.3968 149.042 1 23 1003 17 280
1970233N17155 1970 95 WP MM NOT_NAMED 1970-08-24 18:00:00 TS 25.6000 148.100 main 1299 1222 __O___________ -1 25.6000 148.100 1 23 1003 17 286
1970233N17155 1970 95 WP MM NOT_NAMED 1970-08-24 21:00:00 TS 25.8836 147.187 main 1222 1146 __P___________ -1 25.8836 147.187 1 23 1003 18 289
1970233N17155 1970 95 WP MM NOT_NAMED 1970-08-25 00:00:00 TS 26.2000 146.200 main 1141 1060 __O___________ -1 26.2000 146.200 1 23 1003 20 287
1970233N17155 1970 95 WP MM NOT_NAMED 1970-08-25 03:00:00 TS 26.4724 145.037 main 1055 990 __P___________ -1 26.4724 145.037 1 26 1003 22 283
1970233N17155 1970 95 WP MM NOT_NAMED 1970-08-25 06:00:00 TS 26.7000 143.800 main 987 928 __O___________ -1 26.7000 143.800 1 29 1003 22 280
1970233N17155 1970 95 WP MM NOT_NAMED 1970-08-25 09:00:00 TS 26.8722 142.570 main 928 886 __P___________ -1 26.8722 142.570 1 26 1003 22 278
1970233N17155 1970 95 WP MM NOT_NAMED 1970-08-25 12:00:00 TS 27.0000 141.400 main 883 829 __O___________ -1 27.0000 141.400 1 23 1004 20 277
1970233N17155 1970 95 WP MM NOT_NAMED 1970-08-25 15:00:00 TS 27.1288 140.363 main 829 777 __P___________ -1 27.1288 140.363 1 23 1004 18 276
1970233N17155 1970 95 WP MM NOT_NAMED 1970-08-25 18:00:00 TS 27.2000 139.400 main 772 738 __O___________ -1 27.2000 139.400 1 23 1004 17 272
1970233N17155 1970 95 WP MM NOT_NAMED 1970-08-25 21:00:00 TS 27.1790 138.449 main 735 723 __P___________ -1 27.1790 138.449 1 23 1005 17 267
1970233N17155 1970 95 WP MM NOT_NAMED 1970-08-26 00:00:00 TS 27.1000 137.500 main 721 __O___________ -1 27.1000 137.500 1 23 1006 17 265

Digital Typhoon Data and Search

About IBTrACS Database

This database is a web-friendly format of International Best Track Archive for Climate Stewardship (IBTrACS), a global best track data archive curated by NOAA dating back to 1842.

Updated: 2021-10-08